Terminal Aerodrome Forecast
Issued by NWS Omaha/Valley, NE

Home | Current Version | Previous Version | Text Only | Print | Product List | Glossary Off
Versions: 1 2 3 4 5 6 7 8 9 10 11 12 13 14 15 16 17 18 19 20 21 22 23 24 25 26 27 28

000
FTUS43 KOAX 301738
TAFOFK
TAF
KOFK 301738Z 3018/0118 05014G20KT 3SM -DZ BR OVC008
      TEMPO 3021/0101 2SM -DZ BR OVC006
     FM010100 02013KT 2SM -RA BR OVC005
     FM010900 01016G22KT 3SM -RA OVC006
     FM011500 01015G20KT 5SM BR OVC015=

USA.gov is the U.S. government's official web portal to all federal, state and local government web resources and services.